KCID/CID METAR and TAF weather

Enter ICAO airport designator
Station Type Date Time Source
KCID METAR 2019/08/19 07:52 UTC NOAA

KCID 190752Z AUTO 36003KT 10SM BKN036 21/21 A2994 RMK AO2 SLP131 T02110206 $


Station Type Date Time Source
KCID Decoded METAR 2019/08/19 07:52 UTC NOAA

Station name not available
Aug 19, 2019 - 03:52 AM EDT / 2019.08.19 0752 UTC
Wind: from the N (360 degrees) at 3 MPH (3 KT):0
Visibility: 10 mile(s):0
Sky conditions: mostly cloudy
Temperature: 70.0 F (21.1 C)
Dew Point: 69.1 F (20.6 C)
Relative Humidity: 96%
Pressure (altimeter): 29.94 in. Hg (1013 hPa)
ob: KCID 190752Z AUTO 36003KT 10SM BKN036 21/21 A2994 RMK AO2 SLP131 T02110206
cycle: 8

Station Type Date Time Source
KCID TAF 2019/08/19 06:22 UTC NOAA

TAF KCID 190520Z 1906/2006 36004KT P6SM BKN040
FM191000 02005KT 4SM BR BKN025
FM191600 03007KT P6SM SCT030
FM200000 10004KT P6SM SKC

Example: see airport list